sensor_id;sensor_type;location;lat;lon;timestamp;temperature;humidity
53695;DHT22;39588;51.124;7.190;2022-10-28T00:00:50;16.30;99.90
53695;DHT22;39588;51.124;7.190;2022-10-28T00:03:17;16.30;99.90
53695;DHT22;39588;51.124;7.190;2022-10-28T00:05:43;16.30;99.90
53695;DHT22;39588;51.124;7.190;2022-10-28T00:08:08;16.30;99.90
53695;DHT22;39588;51.124;7.190;2022-10-28T00:10:34;16.30;99.90
53695;DHT22;39588;51.124;7.190;2022-10-28T00:27:37;16.60;99.90
53695;DHT22;39588;51.124;7.190;2022-10-28T00:30:03;16.60;99.90
53695;DHT22;39588;51.124;7.190;2022-10-28T00:34:55;16.60;99.90
53695;DHT22;39588;51.124;7.190;2022-10-28T00:37:21;16.60;99.90
53695;DHT22;39588;51.124;7.190;2022-10-28T00:42:17;16.70;99.90
53695;DHT22;39588;51.124;7.190;2022-10-28T00:44:56;16.70;99.90
53695;DHT22;39588;51.124;7.190;2022-10-28T00:47:37;16.70;99.90
53695;DHT22;39588;51.124;7.190;2022-10-28T00:50:26;16.70;99.90
53695;DHT22;39588;51.124;7.190;2022-10-28T00:52:57;16.60;99.90
53695;DHT22;39588;51.124;7.190;2022-10-28T00:55:24;16.00;99.90
53695;DHT22;39588;51.124;7.190;2022-10-28T00:57:52;16.60;99.90
53695;DHT22;39588;51.124;7.190;2022-10-28T01:00:21;16.60;99.90
53695;DHT22;39588;51.124;7.190;2022-10-28T01:02:48;16.60;99.90
53695;DHT22;39588;51.124;7.190;2022-10-28T01:05:18;16.60;99.90
53695;DHT22;39588;51.124;7.190;2022-10-28T01:07:44;16.60;99.90
53695;DHT22;39588;51.124;7.190;2022-10-28T01:10:11;16.70;99.90
53695;DHT22;39588;51.124;7.190;2022-10-28T01:13:10;16.70;99.90
53695;DHT22;39588;51.124;7.190;2022-10-28T01:15:47;16.70;99.90
53695;DHT22;39588;51.124;7.190;2022-10-28T01:18:44;16.70;99.90
53695;DHT22;39588;51.124;7.190;2022-10-28T01:32:50;16.80;99.90
53695;DHT22;39588;51.124;7.190;2022-10-28T01:40:34;16.90;99.90
53695;DHT22;39588;51.124;7.190;2022-10-28T01:43:10;16.90;99.90
53695;DHT22;39588;51.124;7.190;2022-10-28T01:45:46;17.00;99.90
53695;DHT22;39588;51.124;7.190;2022-10-28T01:48:28;16.90;99.90
53695;DHT22;39588;51.124;7.190;2022-10-28T01:53:31;17.00;99.90
53695;DHT22;39588;51.124;7.190;2022-10-28T01:56:03;17.00;99.80
53695;DHT22;39588;51.124;7.190;2022-10-28T01:58:30;17.00;99.90
53695;DHT22;39588;51.124;7.190;2022-10-28T02:00:58;17.00;99.80
53695;DHT22;39588;51.124;7.190;2022-10-28T02:03:26;17.00;99.80
53695;DHT22;39588;51.124;7.190;2022-10-28T02:05:54;17.00;99.70
53695;DHT22;39588;51.124;7.190;2022-10-28T02:16:18;17.00;99.70
53695;DHT22;39588;51.124;7.190;2022-10-28T02:27:33;17.10;99.60
53695;DHT22;39588;51.124;7.190;2022-10-28T02:30:02;17.10;99.50
53695;DHT22;39588;51.124;7.190;2022-10-28T02:32:32;17.10;99.40
53695;DHT22;39588;51.124;7.190;2022-10-28T02:35:00;17.10;99.40
53695;DHT22;39588;51.124;7.190;2022-10-28T02:37:29;17.10;99.40
53695;DHT22;39588;51.124;7.190;2022-10-28T02:39:59;17.10;99.20
53695;DHT22;39588;51.124;7.190;2022-10-28T02:42:40;17.20;99.30
53695;DHT22;39588;51.124;7.190;2022-10-28T02:45:18;17.20;99.30
53695;DHT22;39588;51.124;7.190;2022-10-28T02:47:51;17.20;99.40
53695;DHT22;39588;51.124;7.190;2022-10-28T02:50:22;17.10;99.30
53695;DHT22;39588;51.124;7.190;2022-10-28T02:52:54;17.10;99.30
53695;DHT22;39588;51.124;7.190;2022-10-28T02:55:23;17.10;99.40
53695;DHT22;39588;51.124;7.190;2022-10-28T02:57:49;17.20;99.40
53695;DHT22;39588;51.124;7.190;2022-10-28T03:00:19;17.20;99.30
53695;DHT22;39588;51.124;7.190;2022-10-28T03:02:46;17.20;99.30
53695;DHT22;39588;51.124;7.190;2022-10-28T03:05:12;17.20;99.20
53695;DHT22;39588;51.124;7.190;2022-10-28T03:07:38;17.20;99.10
53695;DHT22;39588;51.124;7.190;2022-10-28T03:12:30;17.20;99.20
53695;DHT22;39588;51.124;7.190;2022-10-28T03:27:05;16.90;99.30
53695;DHT22;39588;51.124;7.190;2022-10-28T03:29:31;16.90;99.40
53695;DHT22;39588;51.124;7.190;2022-10-28T03:31:56;16.80;99.40
53695;DHT22;39588;51.124;7.190;2022-10-28T03:48:58;16.70;99.40
53695;DHT22;39588;51.124;7.190;2022-10-28T03:51:24;16.70;99.40
53695;DHT22;39588;51.124;7.190;2022-10-28T03:53:49;16.70;99.50
53695;DHT22;39588;51.124;7.190;2022-10-28T03:56:15;16.70;99.50
53695;DHT22;39588;51.124;7.190;2022-10-28T04:01:06;16.70;99.50
53695;DHT22;39588;51.124;7.190;2022-10-28T04:03:32;16.60;99.50
53695;DHT22;39588;51.124;7.190;2022-10-28T04:05:58;16.60;99.50
53695;DHT22;39588;51.124;7.190;2022-10-28T04:15:41;16.60;99.60
53695;DHT22;39588;51.124;7.190;2022-10-28T04:22:59;16.50;99.70
53695;DHT22;39588;51.124;7.190;2022-10-28T04:25:26;16.50;99.70
53695;DHT22;39588;51.124;7.190;2022-10-28T04:27:52;16.40;99.70
53695;DHT22;39588;51.124;7.190;2022-10-28T04:30:18;16.40;99.80
53695;DHT22;39588;51.124;7.190;2022-10-28T04:35:11;16.40;99.90
53695;DHT22;39588;51.124;7.190;2022-10-28T04:37:38;16.30;99.80
53695;DHT22;39588;51.124;7.190;2022-10-28T04:40:05;16.30;99.90
53695;DHT22;39588;51.124;7.190;2022-10-28T04:42:30;16.30;99.90
53695;DHT22;39588;51.124;7.190;2022-10-28T04:54:40;16.10;99.90
53695;DHT22;39588;51.124;7.190;2022-10-28T04:57:06;16.10;99.90
53695;DHT22;39588;51.124;7.190;2022-10-28T04:59:31;16.10;99.90
53695;DHT22;39588;51.124;7.190;2022-10-28T05:14:07;16.00;99.90
53695;DHT22;39588;51.124;7.190;2022-10-28T05:16:32;16.10;99.90
53695;DHT22;39588;51.124;7.190;2022-10-28T05:18:58;16.10;99.90
53695;DHT22;39588;51.124;7.190;2022-10-28T05:21:24;16.10;99.90
53695;DHT22;39588;51.124;7.190;2022-10-28T05:28:41;16.00;99.90
53695;DHT22;39588;51.124;7.190;2022-10-28T05:43:17;16.00;99.90
53695;DHT22;39588;51.124;7.190;2022-10-28T05:45:43;16.00;99.90
53695;DHT22;39588;51.124;7.190;2022-10-28T05:48:09;16.00;99.90
53695;DHT22;39588;51.124;7.190;2022-10-28T05:50:34;16.00;99.90
53695;DHT22;39588;51.124;7.190;2022-10-28T05:53:00;16.00;99.90
53695;DHT22;39588;51.124;7.190;2022-10-28T05:55:27;16.00;99.90
53695;DHT22;39588;51.124;7.190;2022-10-28T05:57:54;16.00;99.90
53695;DHT22;39588;51.124;7.190;2022-10-28T06:00:22;16.00;99.90
53695;DHT22;39588;51.124;7.190;2022-10-28T06:02:48;16.00;99.90
53695;DHT22;39588;51.124;7.190;2022-10-28T06:05:14;16.00;99.90
53695;DHT22;39588;51.124;7.190;2022-10-28T06:07:40;16.00;99.90
53695;DHT22;39588;51.124;7.190;2022-10-28T06:10:08;16.00;99.90
53695;DHT22;39588;51.124;7.190;2022-10-28T06:12:34;16.00;99.90
53695;DHT22;39588;51.124;7.190;2022-10-28T06:15:00;16.00;99.90
53695;DHT22;39588;51.124;7.190;2022-10-28T06:17:26;16.00;99.90
53695;DHT22;39588;51.124;7.190;2022-10-28T06:19:51;16.00;99.90
53695;DHT22;39588;51.124;7.190;2022-10-28T06:29:35;16.00;99.90
53695;DHT22;39588;51.124;7.190;2022-10-28T06:34:27;16.00;99.90
53695;DHT22;39588;51.124;7.190;2022-10-28T06:36:52;16.20;99.90
53695;DHT22;39588;51.124;7.190;2022-10-28T06:39:18;16.20;99.90
53695;DHT22;39588;51.124;7.190;2022-10-28T06:41:44;16.20;99.90
53695;DHT22;39588;51.124;7.190;2022-10-28T06:51:29;16.20;99.90
53695;DHT22;39588;51.124;7.190;2022-10-28T06:53:55;16.20;99.90
53695;DHT22;39588;51.124;7.190;2022-10-28T06:56:21;16.30;99.90
53695;DHT22;39588;51.124;7.190;2022-10-28T06:58:51;16.20;99.90
53695;DHT22;39588;51.124;7.190;2022-10-28T07:01:18;16.30;99.90
53695;DHT22;39588;51.124;7.190;2022-10-28T07:03:44;16.30;99.90
53695;DHT22;39588;51.124;7.190;2022-10-28T07:06:09;16.30;99.90
53695;DHT22;39588;51.124;7.190;2022-10-28T07:11:01;16.40;99.90
53695;DHT22;39588;51.124;7.190;2022-10-28T07:13:27;16.40;99.90
53695;DHT22;39588;51.124;7.190;2022-10-28T07:15:58;16.50;99.90
53695;DHT22;39588;51.124;7.190;2022-10-28T07:18:26;16.50;99.90
53695;DHT22;39588;51.124;7.190;2022-10-28T07:20:51;16.60;99.90
53695;DHT22;39588;51.124;7.190;2022-10-28T07:23:17;16.60;99.90
53695;DHT22;39588;51.124;7.190;2022-10-28T07:25:51;16.60;99.90
53695;DHT22;39588;51.124;7.190;2022-10-28T07:28:16;16.60;99.90
53695;DHT22;39588;51.124;7.190;2022-10-28T07:30:42;16.70;99.80
53695;DHT22;39588;51.124;7.190;2022-10-28T07:33:07;16.70;99.70
53695;DHT22;39588;51.124;7.190;2022-10-28T07:37:59;16.90;99.70
53695;DHT22;39588;51.124;7.190;2022-10-28T07:40:25;17.00;99.60
53695;DHT22;39588;51.124;7.190;2022-10-28T07:42:50;17.10;99.50
53695;DHT22;39588;51.124;7.190;2022-10-28T07:45:17;17.20;99.50
53695;DHT22;39588;51.124;7.190;2022-10-28T07:47:43;17.30;99.40
53695;DHT22;39588;51.124;7.190;2022-10-28T07:50:10;17.30;99.40
53695;DHT22;39588;51.124;7.190;2022-10-28T07:55:03;17.40;99.40
53695;DHT22;39588;51.124;7.190;2022-10-28T07:57:29;17.40;99.40
53695;DHT22;39588;51.124;7.190;2022-10-28T07:59:55;17.40;99.40
53695;DHT22;39588;51.124;7.190;2022-10-28T08:02:22;17.40;99.50
53695;DHT22;39588;51.124;7.190;2022-10-28T08:07:14;17.50;99.20
53695;DHT22;39588;51.124;7.190;2022-10-28T08:12:07;17.50;99.30
53695;DHT22;39588;51.124;7.190;2022-10-28T08:14:33;17.50;99.10
53695;DHT22;39588;51.124;7.190;2022-10-28T08:16:59;17.60;99.20
53695;DHT22;39588;51.124;7.190;2022-10-28T08:19:26;17.70;99.10
53695;DHT22;39588;51.124;7.190;2022-10-28T08:21:51;17.80;99.00
53695;DHT22;39588;51.124;7.190;2022-10-28T08:29:10;18.20;98.90
53695;DHT22;39588;51.124;7.190;2022-10-28T08:31:37;18.20;98.70
53695;DHT22;39588;51.124;7.190;2022-10-28T08:34:04;18.40;98.60
53695;DHT22;39588;51.124;7.190;2022-10-28T08:36:30;18.50;98.70
53695;DHT22;39588;51.124;7.190;2022-10-28T08:38:56;18.50;98.60
53695;DHT22;39588;51.124;7.190;2022-10-28T08:46:53;18.40;98.30
53695;DHT22;39588;51.124;7.190;2022-10-28T08:49:22;18.30;98.40
53695;DHT22;39588;51.124;7.190;2022-10-28T08:54:19;18.20;98.70
53695;DHT22;39588;51.124;7.190;2022-10-28T08:56:46;18.10;98.70
53695;DHT22;39588;51.124;7.190;2022-10-28T08:59:21;18.10;98.80
53695;DHT22;39588;51.124;7.190;2022-10-28T09:01:48;18.10;98.90
53695;DHT22;39588;51.124;7.190;2022-10-28T09:04:27;18.10;98.80
53695;DHT22;39588;51.124;7.190;2022-10-28T09:07:01;18.10;98.70
53695;DHT22;39588;51.124;7.190;2022-10-28T09:09:27;18.10;98.80
53695;DHT22;39588;51.124;7.190;2022-10-28T09:12:02;18.10;98.60
53695;DHT22;39588;51.124;7.190;2022-10-28T09:19:50;18.60;98.50
53695;DHT22;39588;51.124;7.190;2022-10-28T09:24:55;18.80;98.40
53695;DHT22;39588;51.124;7.190;2022-10-28T09:35:55;19.10;98.50
53695;DHT22;39588;51.124;7.190;2022-10-28T09:38:28;19.20;98.40
53695;DHT22;39588;51.124;7.190;2022-10-28T09:41:01;19.30;98.10
53695;DHT22;39588;51.124;7.190;2022-10-28T09:43:47;19.30;97.80
53695;DHT22;39588;51.124;7.190;2022-10-28T09:46:17;19.40;97.90
53695;DHT22;39588;51.124;7.190;2022-10-28T09:48:48;19.40;98.00
53695;DHT22;39588;51.124;7.190;2022-10-28T09:54:11;19.70;98.00
53695;DHT22;39588;51.124;7.190;2022-10-28T09:56:37;19.80;97.60
53695;DHT22;39588;51.124;7.190;2022-10-28T10:01:35;20.00;97.70
53695;DHT22;39588;51.124;7.190;2022-10-28T10:04:01;20.10;97.30
53695;DHT22;39588;51.124;7.190;2022-10-28T10:06:37;20.10;97.20
53695;DHT22;39588;51.124;7.190;2022-10-28T10:09:04;20.20;97.60
53695;DHT22;39588;51.124;7.190;2022-10-28T10:11:42;20.40;97.50
53695;DHT22;39588;51.124;7.190;2022-10-28T10:14:12;20.60;97.10
53695;DHT22;39588;51.124;7.190;2022-10-28T10:17:02;20.60;96.70
53695;DHT22;39588;51.124;7.190;2022-10-28T10:19:59;20.60;96.80
53695;DHT22;39588;51.124;7.190;2022-10-28T10:22:36;20.60;96.70
53695;DHT22;39588;51.124;7.190;2022-10-28T10:27:59;20.60;96.80
53695;DHT22;39588;51.124;7.190;2022-10-28T10:32:54;20.70;96.90
53695;DHT22;39588;51.124;7.190;2022-10-28T10:35:29;20.70;96.40
53695;DHT22;39588;51.124;7.190;2022-10-28T10:37:58;20.50;96.40
53695;DHT22;39588;51.124;7.190;2022-10-28T10:46:31;20.60;96.90
53695;DHT22;39588;51.124;7.190;2022-10-28T10:48:39;20.70;97.10
53695;DHT22;39588;51.124;7.190;2022-10-28T10:51:25;20.70;97.00
53695;DHT22;39588;51.124;7.190;2022-10-28T10:53:54;20.80;96.50
53695;DHT22;39588;51.124;7.190;2022-10-28T10:56:28;20.90;96.70
53695;DHT22;39588;51.124;7.190;2022-10-28T10:59:02;21.00;96.70
53695;DHT22;39588;51.124;7.190;2022-10-28T11:01:36;21.10;96.80
53695;DHT22;39588;51.124;7.190;2022-10-28T11:04:07;21.10;96.40
53695;DHT22;39588;51.124;7.190;2022-10-28T11:06:41;21.10;96.50
53695;DHT22;39588;51.124;7.190;2022-10-28T11:11:53;21.10;96.00
53695;DHT22;39588;51.124;7.190;2022-10-28T11:14:28;21.00;96.10
53695;DHT22;39588;51.124;7.190;2022-10-28T11:16:59;21.10;96.50
53695;DHT22;39588;51.124;7.190;2022-10-28T11:19:29;21.10;96.40
53695;DHT22;39588;51.124;7.190;2022-10-28T11:29:37;21.70;96.20
53695;DHT22;39588;51.124;7.190;2022-10-28T11:32:15;21.70;96.30
53695;DHT22;39588;51.124;7.190;2022-10-28T11:43:18;22.00;95.30
53695;DHT22;39588;51.124;7.190;2022-10-28T11:46:08;22.00;95.40
53695;DHT22;39588;51.124;7.190;2022-10-28T11:51:16;22.00;95.40
53695;DHT22;39588;51.124;7.190;2022-10-28T11:57:08;22.10;95.10
53695;DHT22;39588;51.124;7.190;2022-10-28T12:00:20;22.20;94.90
53695;DHT22;39588;51.124;7.190;2022-10-28T12:06:01;22.10;94.80
53695;DHT22;39588;51.124;7.190;2022-10-28T12:11:31;22.30;94.50
53695;DHT22;39588;51.124;7.190;2022-10-28T12:19:38;22.30;94.80
53695;DHT22;39588;51.124;7.190;2022-10-28T12:22:21;22.40;94.90
53695;DHT22;39588;51.124;7.190;2022-10-28T12:24:51;22.50;94.60
53695;DHT22;39588;51.124;7.190;2022-10-28T12:27:27;22.60;94.40
53695;DHT22;39588;51.124;7.190;2022-10-28T12:29:59;22.60;94.60
53695;DHT22;39588;51.124;7.190;2022-10-28T12:32:28;22.70;93.90
53695;DHT22;39588;51.124;7.190;2022-10-28T12:35:20;22.70;94.00
53695;DHT22;39588;51.124;7.190;2022-10-28T12:38:06;22.60;93.90
53695;DHT22;39588;51.124;7.190;2022-10-28T12:41:01;22.50;94.20
53695;DHT22;39588;51.124;7.190;2022-10-28T12:43:31;22.50;94.40
53695;DHT22;39588;51.124;7.190;2022-10-28T12:45:58;22.50;94.10
53695;DHT22;39588;51.124;7.190;2022-10-28T12:48:41;22.50;94.10
53695;DHT22;39588;51.124;7.190;2022-10-28T12:51:27;22.40;94.40
53695;DHT22;39588;51.124;7.190;2022-10-28T12:53:59;22.40;94.10
53695;DHT22;39588;51.124;7.190;2022-10-28T12:56:36;22.40;94.00
53695;DHT22;39588;51.124;7.190;2022-10-28T12:59:14;22.30;94.30
53695;DHT22;39588;51.124;7.190;2022-10-28T13:01:44;22.10;94.60
53695;DHT22;39588;51.124;7.190;2022-10-28T13:04:11;22.10;94.60
53695;DHT22;39588;51.124;7.190;2022-10-28T13:10:16;22.30;95.00
53695;DHT22;39588;51.124;7.190;2022-10-28T13:20:48;22.40;94.70
53695;DHT22;39588;51.124;7.190;2022-10-28T13:26:26;22.40;94.80
53695;DHT22;39588;51.124;7.190;2022-10-28T13:28:56;22.40;94.70
53695;DHT22;39588;51.124;7.190;2022-10-28T13:31:34;22.30;94.80
53695;DHT22;39588;51.124;7.190;2022-10-28T13:34:00;22.30;94.80
53695;DHT22;39588;51.124;7.190;2022-10-28T13:36:36;22.20;94.80
53695;DHT22;39588;51.124;7.190;2022-10-28T13:44:57;22.10;94.90
53695;DHT22;39588;51.124;7.190;2022-10-28T13:57:48;22.30;94.60
53695;DHT22;39588;51.124;7.190;2022-10-28T14:02:48;22.30;94.50
53695;DHT22;39588;51.124;7.190;2022-10-28T14:05:16;22.30;94.60
53695;DHT22;39588;51.124;7.190;2022-10-28T14:07:50;22.30;94.50
53695;DHT22;39588;51.124;7.190;2022-10-28T14:12:59;22.20;94.30
53695;DHT22;39588;51.124;7.190;2022-10-28T14:15:29;22.10;94.50
53695;DHT22;39588;51.124;7.190;2022-10-28T14:18:06;22.00;94.60
53695;DHT22;39588;51.124;7.190;2022-10-28T14:49:26;21.30;94.90
53695;DHT22;39588;51.124;7.190;2022-10-28T14:51:54;21.30;94.80
53695;DHT22;39588;51.124;7.190;2022-10-28T14:54:43;21.30;94.90
53695;DHT22;39588;51.124;7.190;2022-10-28T14:57:11;21.30;94.90
53695;DHT22;39588;51.124;7.190;2022-10-28T14:59:41;21.30;94.90
53695;DHT22;39588;51.124;7.190;2022-10-28T15:02:16;21.20;95.00
53695;DHT22;39588;51.124;7.190;2022-10-28T15:04:44;21.20;95.30
53695;DHT22;39588;51.124;7.190;2022-10-28T15:07:16;21.10;95.30
53695;DHT22;39588;51.124;7.190;2022-10-28T15:09:44;21.00;95.40
53695;DHT22;39588;51.124;7.190;2022-10-28T15:12:14;20.90;95.60
53695;DHT22;39588;51.124;7.190;2022-10-28T15:17:19;20.80;95.70
53695;DHT22;39588;51.124;7.190;2022-10-28T15:19:47;20.80;95.70
53695;DHT22;39588;51.124;7.190;2022-10-28T15:27:10;20.60;95.90
53695;DHT22;39588;51.124;7.190;2022-10-28T15:36:56;20.60;96.10
53695;DHT22;39588;51.124;7.190;2022-10-28T15:39:23;20.50;96.00
53695;DHT22;39588;51.124;7.190;2022-10-28T15:41:49;20.50;96.10
53695;DHT22;39588;51.124;7.190;2022-10-28T15:47:12;20.40;96.20
53695;DHT22;39588;51.124;7.190;2022-10-28T15:49:39;20.30;96.30
53695;DHT22;39588;51.124;7.190;2022-10-28T15:52:21;20.20;96.40
53695;DHT22;39588;51.124;7.190;2022-10-28T15:54:54;20.20;96.50
53695;DHT22;39588;51.124;7.190;2022-10-28T15:57:23;20.10;96.60
53695;DHT22;39588;51.124;7.190;2022-10-28T16:00:16;20.10;96.60
53695;DHT22;39588;51.124;7.190;2022-10-28T16:02:42;20.00;96.80
53695;DHT22;39588;51.124;7.190;2022-10-28T16:08:03;19.90;96.90
53695;DHT22;39588;51.124;7.190;2022-10-28T16:10:43;19.80;96.90
53695;DHT22;39588;51.124;7.190;2022-10-28T16:18:23;19.70;97.20
53695;DHT22;39588;51.124;7.190;2022-10-28T16:20:50;19.60;97.20
53695;DHT22;39588;51.124;7.190;2022-10-28T16:23:18;19.60;97.30
53695;DHT22;39588;51.124;7.190;2022-10-28T16:28:23;19.50;97.20
53695;DHT22;39588;51.124;7.190;2022-10-28T16:30:51;19.50;97.30
53695;DHT22;39588;51.124;7.190;2022-10-28T16:33:17;19.40;97.30
53695;DHT22;39588;51.124;7.190;2022-10-28T16:38:12;19.40;97.40
53695;DHT22;39588;51.124;7.190;2022-10-28T16:40:39;19.40;97.40
53695;DHT22;39588;51.124;7.190;2022-10-28T16:43:04;19.40;97.30
53695;DHT22;39588;51.124;7.190;2022-10-28T16:45:30;19.30;97.30
53695;DHT22;39588;51.124;7.190;2022-10-28T16:55:15;19.20;97.50
53695;DHT22;39588;51.124;7.190;2022-10-28T16:57:41;19.10;97.40
53695;DHT22;39588;51.124;7.190;2022-10-28T17:00:08;19.20;97.50
53695;DHT22;39588;51.124;7.190;2022-10-28T17:02:37;19.10;97.50
53695;DHT22;39588;51.124;7.190;2022-10-28T17:05:02;19.10;97.60
53695;DHT22;39588;51.124;7.190;2022-10-28T17:07:34;19.00;97.60
53695;DHT22;39588;51.124;7.190;2022-10-28T17:09:59;19.00;97.70
53695;DHT22;39588;51.124;7.190;2022-10-28T17:12:26;18.90;97.70
53695;DHT22;39588;51.124;7.190;2022-10-28T17:14:52;18.90;97.90
53695;DHT22;39588;51.124;7.190;2022-10-28T17:17:18;18.80;98.00
53695;DHT22;39588;51.124;7.190;2022-10-28T17:19:44;18.80;98.10
53695;DHT22;39588;51.124;7.190;2022-10-28T17:22:11;18.70;98.20
53695;DHT22;39588;51.124;7.190;2022-10-28T17:24:37;18.70;98.30
53695;DHT22;39588;51.124;7.190;2022-10-28T17:27:03;18.70;98.30
53695;DHT22;39588;51.124;7.190;2022-10-28T17:29:29;18.70;98.40
53695;DHT22;39588;51.124;7.190;2022-10-28T17:36:46;18.60;98.40
53695;DHT22;39588;51.124;7.190;2022-10-28T17:39:12;18.60;98.40
53695;DHT22;39588;51.124;7.190;2022-10-28T17:44:04;18.50;98.30
53695;DHT22;39588;51.124;7.190;2022-10-28T17:46:29;18.50;98.30
53695;DHT22;39588;51.124;7.190;2022-10-28T17:53:53;18.50;98.30
53695;DHT22;39588;51.124;7.190;2022-10-28T17:56:19;18.50;98.30
53695;DHT22;39588;51.124;7.190;2022-10-28T17:58:45;18.40;98.30
53695;DHT22;39588;51.124;7.190;2022-10-28T18:01:11;18.40;98.30
53695;DHT22;39588;51.124;7.190;2022-10-28T18:03:37;18.40;98.40
53695;DHT22;39588;51.124;7.190;2022-10-28T18:06:11;18.40;98.40
53695;DHT22;39588;51.124;7.190;2022-10-28T18:08:38;18.30;98.40
53695;DHT22;39588;51.124;7.190;2022-10-28T18:11:05;18.30;98.40
53695;DHT22;39588;51.124;7.190;2022-10-28T18:13:35;18.30;98.50
53695;DHT22;39588;51.124;7.190;2022-10-28T18:16:27;18.30;98.50
53695;DHT22;39588;51.124;7.190;2022-10-28T18:18:53;18.30;98.50
53695;DHT22;39588;51.124;7.190;2022-10-28T18:23:53;18.30;98.60
53695;DHT22;39588;51.124;7.190;2022-10-28T18:26:19;18.30;98.60
53695;DHT22;39588;51.124;7.190;2022-10-28T18:28:45;18.20;98.60
53695;DHT22;39588;51.124;7.190;2022-10-28T18:31:17;18.20;98.60
53695;DHT22;39588;51.124;7.190;2022-10-28T18:33:43;18.20;98.60
53695;DHT22;39588;51.124;7.190;2022-10-28T18:36:10;18.20;98.70
53695;DHT22;39588;51.124;7.190;2022-10-28T18:38:36;18.20;98.70
53695;DHT22;39588;51.124;7.190;2022-10-28T18:41:02;18.20;98.80
53695;DHT22;39588;51.124;7.190;2022-10-28T18:43:27;18.20;98.80
53695;DHT22;39588;51.124;7.190;2022-10-28T18:51:05;18.10;98.80
53695;DHT22;39588;51.124;7.190;2022-10-28T18:53:34;18.10;98.90
53695;DHT22;39588;51.124;7.190;2022-10-28T18:56:01;18.00;98.90
53695;DHT22;39588;51.124;7.190;2022-10-28T19:00:53;18.00;98.90
53695;DHT22;39588;51.124;7.190;2022-10-28T19:03:26;18.00;99.00
53695;DHT22;39588;51.124;7.190;2022-10-28T19:05:52;18.00;99.00
53695;DHT22;39588;51.124;7.190;2022-10-28T19:08:19;17.90;98.90
53695;DHT22;39588;51.124;7.190;2022-10-28T19:10:44;17.90;99.00
53695;DHT22;39588;51.124;7.190;2022-10-28T19:13:10;17.90;99.00
53695;DHT22;39588;51.124;7.190;2022-10-28T19:25:26;17.80;99.00
53695;DHT22;39588;51.124;7.190;2022-10-28T19:27:51;17.80;99.00
53695;DHT22;39588;51.124;7.190;2022-10-28T19:32:43;17.70;99.10
53695;DHT22;39588;51.124;7.190;2022-10-28T19:49:44;17.80;99.20
53695;DHT22;39588;51.124;7.190;2022-10-28T19:52:10;17.70;99.20
53695;DHT22;39588;51.124;7.190;2022-10-28T19:54:36;17.70;99.20
53695;DHT22;39588;51.124;7.190;2022-10-28T19:57:01;17.70;99.20
53695;DHT22;39588;51.124;7.190;2022-10-28T19:59:27;17.60;99.20
53695;DHT22;39588;51.124;7.190;2022-10-28T20:01:52;17.60;99.20
53695;DHT22;39588;51.124;7.190;2022-10-28T20:06:46;17.70;99.20
53695;DHT22;39588;51.124;7.190;2022-10-28T20:11:38;17.70;99.20
53695;DHT22;39588;51.124;7.190;2022-10-28T20:14:06;17.70;99.20
53695;DHT22;39588;51.124;7.190;2022-10-28T20:16:36;17.70;99.10
53695;DHT22;39588;51.124;7.190;2022-10-28T20:21:31;17.70;99.10
53695;DHT22;39588;51.124;7.190;2022-10-28T20:26:29;17.70;99.10
53695;DHT22;39588;51.124;7.190;2022-10-28T20:28:56;17.70;99.20
53695;DHT22;39588;51.124;7.190;2022-10-28T20:31:24;17.70;99.10
53695;DHT22;39588;51.124;7.190;2022-10-28T20:33:57;17.70;99.20
53695;DHT22;39588;51.124;7.190;2022-10-28T20:36:25;17.70;99.20
53695;DHT22;39588;51.124;7.190;2022-10-28T20:38:59;17.60;99.20
53695;DHT22;39588;51.124;7.190;2022-10-28T20:41:27;17.50;99.20
53695;DHT22;39588;51.124;7.190;2022-10-28T20:43:53;17.50;99.30
53695;DHT22;39588;51.124;7.190;2022-10-28T20:46:20;17.50;99.40
53695;DHT22;39588;51.124;7.190;2022-10-28T20:48:46;17.40;99.40
53695;DHT22;39588;51.124;7.190;2022-10-28T20:51:12;17.40;99.40
53695;DHT22;39588;51.124;7.190;2022-10-28T20:53:38;17.30;99.40
53695;DHT22;39588;51.124;7.190;2022-10-28T20:58:32;17.30;99.40
53695;DHT22;39588;51.124;7.190;2022-10-28T21:01:15;17.40;99.30
53695;DHT22;39588;51.124;7.190;2022-10-28T21:03:42;17.50;99.40
53695;DHT22;39588;51.124;7.190;2022-10-28T21:06:08;17.60;99.40
53695;DHT22;39588;51.124;7.190;2022-10-28T21:11:06;17.60;99.30
53695;DHT22;39588;51.124;7.190;2022-10-28T21:13:32;17.50;99.30
53695;DHT22;39588;51.124;7.190;2022-10-28T21:15:58;17.50;99.40
53695;DHT22;39588;51.124;7.190;2022-10-28T21:18:27;17.40;99.40
53695;DHT22;39588;51.124;7.190;2022-10-28T21:20:57;17.40;99.40
53695;DHT22;39588;51.124;7.190;2022-10-28T21:23:23;17.30;99.40
53695;DHT22;39588;51.124;7.190;2022-10-28T21:25:57;17.30;99.50
53695;DHT22;39588;51.124;7.190;2022-10-28T21:28:24;17.20;99.50
53695;DHT22;39588;51.124;7.190;2022-10-28T21:31:01;17.20;99.50
53695;DHT22;39588;51.124;7.190;2022-10-28T21:33:28;17.20;99.50
53695;DHT22;39588;51.124;7.190;2022-10-28T21:35:58;17.20;99.50
53695;DHT22;39588;51.124;7.190;2022-10-28T21:38:25;17.20;99.50
53695;DHT22;39588;51.124;7.190;2022-10-28T21:43:29;17.10;99.50
53695;DHT22;39588;51.124;7.190;2022-10-28T21:45:55;17.10;99.50
53695;DHT22;39588;51.124;7.190;2022-10-28T21:48:21;17.10;99.60
53695;DHT22;39588;51.124;7.190;2022-10-28T21:50:55;17.10;99.60
53695;DHT22;39588;51.124;7.190;2022-10-28T21:53:21;17.10;99.60
53695;DHT22;39588;51.124;7.190;2022-10-28T21:55:47;17.00;99.60
53695;DHT22;39588;51.124;7.190;2022-10-28T21:58:13;17.00;99.60
53695;DHT22;39588;51.124;7.190;2022-10-28T22:00:40;17.00;99.60
53695;DHT22;39588;51.124;7.190;2022-10-28T22:03:06;17.00;99.60
53695;DHT22;39588;51.124;7.190;2022-10-28T22:05:32;17.00;99.60
53695;DHT22;39588;51.124;7.190;2022-10-28T22:07:57;17.00;99.60
53695;DHT22;39588;51.124;7.190;2022-10-28T22:20:07;16.90;99.70
53695;DHT22;39588;51.124;7.190;2022-10-28T22:22:35;16.90;99.70
53695;DHT22;39588;51.124;7.190;2022-10-28T22:25:01;16.90;99.70
53695;DHT22;39588;51.124;7.190;2022-10-28T22:27:26;16.90;99.60
53695;DHT22;39588;51.124;7.190;2022-10-28T22:29:52;17.00;99.60
53695;DHT22;39588;51.124;7.190;2022-10-28T22:39:35;17.10;99.60
53695;DHT22;39588;51.124;7.190;2022-10-28T22:42:01;17.10;99.60
53695;DHT22;39588;51.124;7.190;2022-10-28T22:44:27;17.10;99.60
53695;DHT22;39588;51.124;7.190;2022-10-28T22:46:52;17.10;99.70
53695;DHT22;39588;51.124;7.190;2022-10-28T22:51:47;17.00;99.70
53695;DHT22;39588;51.124;7.190;2022-10-28T22:54:13;16.90;99.70
53695;DHT22;39588;51.124;7.190;2022-10-28T22:56:39;16.80;99.70
53695;DHT22;39588;51.124;7.190;2022-10-28T22:59:05;16.80;99.70
53695;DHT22;39588;51.124;7.190;2022-10-28T23:01:31;16.70;99.80
53695;DHT22;39588;51.124;7.190;2022-10-28T23:03:57;16.70;99.80